sensor_id;sensor_type;location;lat;lon;timestamp;P1;durP1;ratioP1;P2;durP2;ratioP2
21114;SDS011;10715;48.546;9.896;2023-08-06T00:00:07;6.17;;;2.80;;
21114;SDS011;10715;48.546;9.896;2023-08-06T00:02:33;3.93;;;3.10;;
21114;SDS011;10715;48.546;9.896;2023-08-06T00:04:59;2.53;;;2.33;;
21114;SDS011;10715;48.546;9.896;2023-08-06T00:07:25;2.70;;;2.50;;
21114;SDS011;10715;48.546;9.896;2023-08-06T00:09:50;2.53;;;2.33;;
21114;SDS011;10715;48.546;9.896;2023-08-06T00:12:16;3.10;;;2.90;;
21114;SDS011;10715;48.546;9.896;2023-08-06T00:14:42;3.27;;;3.00;;
21114;SDS011;10715;48.546;9.896;2023-08-06T00:17:08;5.50;;;3.00;;
21114;SDS011;10715;48.546;9.896;2023-08-06T00:19:33;6.60;;;2.90;;
21114;SDS011;10715;48.546;9.896;2023-08-06T00:21:59;3.87;;;3.57;;
21114;SDS011;10715;48.546;9.896;2023-08-06T00:24:26;4.23;;;3.90;;
21114;SDS011;10715;48.546;9.896;2023-08-06T00:26:52;3.90;;;3.60;;
21114;SDS011;10715;48.546;9.896;2023-08-06T00:29:18;3.50;;;3.10;;
21114;SDS011;10715;48.546;9.896;2023-08-06T00:31:44;3.27;;;2.37;;
21114;SDS011;10715;48.546;9.896;2023-08-06T00:34:09;6.13;;;3.13;;
21114;SDS011;10715;48.546;9.896;2023-08-06T00:36:35;3.90;;;3.27;;
21114;SDS011;10715;48.546;9.896;2023-08-06T00:39:01;3.67;;;2.30;;
21114;SDS011;10715;48.546;9.896;2023-08-06T00:41:27;10.03;;;3.33;;
21114;SDS011;10715;48.546;9.896;2023-08-06T00:43:53;5.60;;;2.40;;
21114;SDS011;10715;48.546;9.896;2023-08-06T00:46:19;7.80;;;3.27;;
21114;SDS011;10715;48.546;9.896;2023-08-06T00:48:45;3.23;;;3.03;;
21114;SDS011;10715;48.546;9.896;2023-08-06T00:51:12;2.70;;;2.50;;
21114;SDS011;10715;48.546;9.896;2023-08-06T00:53:38;7.80;;;3.40;;
21114;SDS011;10715;48.546;9.896;2023-08-06T00:56:05;2.50;;;2.30;;
21114;SDS011;10715;48.546;9.896;2023-08-06T00:58:31;2.90;;;2.43;;
21114;SDS011;10715;48.546;9.896;2023-08-06T01:00:57;2.77;;;2.50;;
21114;SDS011;10715;48.546;9.896;2023-08-06T01:03:23;2.70;;;2.50;;
21114;SDS011;10715;48.546;9.896;2023-08-06T01:05:49;3.90;;;2.70;;
21114;SDS011;10715;48.546;9.896;2023-08-06T01:11:05;2.97;;;2.77;;
21114;SDS011;10715;48.546;9.896;2023-08-06T01:13:46;7.23;;;2.50;;
21114;SDS011;10715;48.546;9.896;2023-08-06T01:16:18;2.83;;;1.90;;
21114;SDS011;10715;48.546;9.896;2023-08-06T01:18:46;2.83;;;1.90;;
21114;SDS011;10715;48.546;9.896;2023-08-06T01:21:14;3.70;;;2.43;;
21114;SDS011;10715;48.546;9.896;2023-08-06T01:23:41;7.60;;;2.90;;
21114;SDS011;10715;48.546;9.896;2023-08-06T01:31:33;2.80;;;1.93;;
21114;SDS011;10715;48.546;9.896;2023-08-06T01:34:02;1.90;;;1.70;;
21114;SDS011;10715;48.546;9.896;2023-08-06T01:36:29;8.70;;;2.57;;
21114;SDS011;10715;48.546;9.896;2023-08-06T01:38:56;3.20;;;2.60;;
21114;SDS011;10715;48.546;9.896;2023-08-06T01:41:22;10.80;;;3.17;;
21114;SDS011;10715;48.546;9.896;2023-08-06T01:43:48;3.60;;;2.37;;
21114;SDS011;10715;48.546;9.896;2023-08-06T01:46:14;6.27;;;2.50;;
21114;SDS011;10715;48.546;9.896;2023-08-06T01:48:39;5.57;;;2.27;;
21114;SDS011;10715;48.546;9.896;2023-08-06T01:51:06;7.30;;;2.27;;
21114;SDS011;10715;48.546;9.896;2023-08-06T01:53:32;6.77;;;2.57;;
21114;SDS011;10715;48.546;9.896;2023-08-06T01:55:58;2.93;;;2.47;;
21114;SDS011;10715;48.546;9.896;2023-08-06T01:58:24;2.67;;;1.83;;
21114;SDS011;10715;48.546;9.896;2023-08-06T02:00:50;2.80;;;2.60;;
21114;SDS011;10715;48.546;9.896;2023-08-06T02:03:15;3.40;;;2.10;;
21114;SDS011;10715;48.546;9.896;2023-08-06T02:05:41;2.57;;;2.37;;
21114;SDS011;10715;48.546;9.896;2023-08-06T02:08:07;2.20;;;2.10;;
21114;SDS011;10715;48.546;9.896;2023-08-06T02:10:33;3.03;;;2.40;;
21114;SDS011;10715;48.546;9.896;2023-08-06T02:12:59;2.93;;;2.73;;
21114;SDS011;10715;48.546;9.896;2023-08-06T02:15:25;3.10;;;2.13;;
21114;SDS011;10715;48.546;9.896;2023-08-06T02:17:50;3.63;;;2.33;;
21114;SDS011;10715;48.546;9.896;2023-08-06T02:20:16;2.53;;;2.37;;
21114;SDS011;10715;48.546;9.896;2023-08-06T02:22:42;1.80;;;1.40;;
21114;SDS011;10715;48.546;9.896;2023-08-06T02:25:08;2.40;;;1.37;;
21114;SDS011;10715;48.546;9.896;2023-08-06T02:27:33;5.97;;;2.20;;
21114;SDS011;10715;48.546;9.896;2023-08-06T02:29:59;2.97;;;2.77;;
21114;SDS011;10715;48.546;9.896;2023-08-06T02:32:25;2.60;;;2.23;;
21114;SDS011;10715;48.546;9.896;2023-08-06T02:34:51;2.20;;;2.00;;
21114;SDS011;10715;48.546;9.896;2023-08-06T02:37:16;2.60;;;2.40;;
21114;SDS011;10715;48.546;9.896;2023-08-06T02:39:42;2.10;;;1.90;;
21114;SDS011;10715;48.546;9.896;2023-08-06T02:42:08;3.33;;;2.20;;
21114;SDS011;10715;48.546;9.896;2023-08-06T02:44:34;1.97;;;1.77;;
21114;SDS011;10715;48.546;9.896;2023-08-06T02:47:00;2.97;;;2.10;;
21114;SDS011;10715;48.546;9.896;2023-08-06T02:49:26;1.73;;;1.63;;
21114;SDS011;10715;48.546;9.896;2023-08-06T02:51:52;4.80;;;1.30;;
21114;SDS011;10715;48.546;9.896;2023-08-06T02:54:18;1.60;;;1.33;;
21114;SDS011;10715;48.546;9.896;2023-08-06T02:56:44;2.57;;;1.93;;
21114;SDS011;10715;48.546;9.896;2023-08-06T02:59:11;1.90;;;1.70;;
21114;SDS011;10715;48.546;9.896;2023-08-06T03:01:37;2.53;;;1.47;;
21114;SDS011;10715;48.546;9.896;2023-08-06T03:04:03;3.40;;;3.17;;
21114;SDS011;10715;48.546;9.896;2023-08-06T03:06:29;2.23;;;2.03;;
21114;SDS011;10715;48.546;9.896;2023-08-06T03:08:55;3.83;;;1.77;;
21114;SDS011;10715;48.546;9.896;2023-08-06T03:11:20;1.73;;;1.30;;
21114;SDS011;10715;48.546;9.896;2023-08-06T03:13:47;1.40;;;1.20;;
21114;SDS011;10715;48.546;9.896;2023-08-06T03:16:13;2.17;;;1.63;;
21114;SDS011;10715;48.546;9.896;2023-08-06T03:18:39;1.60;;;1.40;;
21114;SDS011;10715;48.546;9.896;2023-08-06T03:21:05;1.97;;;1.80;;
21114;SDS011;10715;48.546;9.896;2023-08-06T03:23:31;17.37;;;4.03;;
21114;SDS011;10715;48.546;9.896;2023-08-06T03:26:06;1.30;;;1.20;;
21114;SDS011;10715;48.546;9.896;2023-08-06T03:28:31;1.40;;;1.20;;
21114;SDS011;10715;48.546;9.896;2023-08-06T03:31:00;3.43;;;1.77;;
21114;SDS011;10715;48.546;9.896;2023-08-06T03:33:27;5.03;;;1.73;;
21114;SDS011;10715;48.546;9.896;2023-08-06T03:35:52;2.90;;;1.33;;
21114;SDS011;10715;48.546;9.896;2023-08-06T03:38:18;3.00;;;2.00;;
21114;SDS011;10715;48.546;9.896;2023-08-06T03:40:44;2.80;;;1.37;;
21114;SDS011;10715;48.546;9.896;2023-08-06T03:43:11;3.43;;;1.70;;
21114;SDS011;10715;48.546;9.896;2023-08-06T03:45:36;4.50;;;1.80;;
21114;SDS011;10715;48.546;9.896;2023-08-06T03:48:02;3.53;;;1.77;;
21114;SDS011;10715;48.546;9.896;2023-08-06T03:50:28;2.57;;;2.10;;
21114;SDS011;10715;48.546;9.896;2023-08-06T03:52:53;1.90;;;1.70;;
21114;SDS011;10715;48.546;9.896;2023-08-06T03:55:19;5.30;;;1.80;;
21114;SDS011;10715;48.546;9.896;2023-08-06T03:57:45;2.37;;;2.07;;
21114;SDS011;10715;48.546;9.896;2023-08-06T04:00:11;2.83;;;2.30;;
21114;SDS011;10715;48.546;9.896;2023-08-06T04:02:40;3.67;;;1.93;;
21114;SDS011;10715;48.546;9.896;2023-08-06T04:05:06;2.57;;;2.30;;
21114;SDS011;10715;48.546;9.896;2023-08-06T04:07:32;2.57;;;2.37;;
21114;SDS011;10715;48.546;9.896;2023-08-06T04:09:59;2.70;;;2.47;;
21114;SDS011;10715;48.546;9.896;2023-08-06T04:12:26;2.60;;;2.40;;
21114;SDS011;10715;48.546;9.896;2023-08-06T04:14:53;6.87;;;3.17;;
21114;SDS011;10715;48.546;9.896;2023-08-06T04:17:19;2.57;;;2.37;;
21114;SDS011;10715;48.546;9.896;2023-08-06T04:19:49;4.30;;;4.00;;
21114;SDS011;10715;48.546;9.896;2023-08-06T04:22:16;2.63;;;2.43;;
21114;SDS011;10715;48.546;9.896;2023-08-06T04:24:42;3.93;;;2.03;;
21114;SDS011;10715;48.546;9.896;2023-08-06T04:27:09;3.47;;;3.17;;
21114;SDS011;10715;48.546;9.896;2023-08-06T04:29:35;3.27;;;2.97;;
21114;SDS011;10715;48.546;9.896;2023-08-06T04:32:03;4.53;;;2.97;;
21114;SDS011;10715;48.546;9.896;2023-08-06T04:34:30;2.20;;;2.00;;
21114;SDS011;10715;48.546;9.896;2023-08-06T04:36:56;2.63;;;2.43;;
21114;SDS011;10715;48.546;9.896;2023-08-06T04:39:21;2.80;;;2.60;;
21114;SDS011;10715;48.546;9.896;2023-08-06T04:41:47;6.27;;;2.27;;
21114;SDS011;10715;48.546;9.896;2023-08-06T04:44:12;3.70;;;3.40;;
21114;SDS011;10715;48.546;9.896;2023-08-06T04:46:38;3.30;;;3.00;;
21114;SDS011;10715;48.546;9.896;2023-08-06T04:49:04;2.80;;;2.50;;
21114;SDS011;10715;48.546;9.896;2023-08-06T04:51:30;6.07;;;4.10;;
21114;SDS011;10715;48.546;9.896;2023-08-06T04:53:56;5.13;;;4.67;;
21114;SDS011;10715;48.546;9.896;2023-08-06T04:56:22;6.30;;;4.23;;
21114;SDS011;10715;48.546;9.896;2023-08-06T04:58:48;5.53;;;4.40;;
21114;SDS011;10715;48.546;9.896;2023-08-06T05:01:15;3.60;;;3.13;;
21114;SDS011;10715;48.546;9.896;2023-08-06T05:03:40;4.53;;;3.80;;
21114;SDS011;10715;48.546;9.896;2023-08-06T05:06:06;4.37;;;4.00;;
21114;SDS011;10715;48.546;9.896;2023-08-06T05:08:32;7.33;;;4.20;;
21114;SDS011;10715;48.546;9.896;2023-08-06T05:10:58;4.70;;;2.03;;
21114;SDS011;10715;48.546;9.896;2023-08-06T05:13:23;2.30;;;2.10;;
21114;SDS011;10715;48.546;9.896;2023-08-06T05:15:50;2.20;;;1.87;;
21114;SDS011;10715;48.546;9.896;2023-08-06T05:18:18;1.50;;;1.23;;
21114;SDS011;10715;48.546;9.896;2023-08-06T05:20:44;1.33;;;0.90;;
21114;SDS011;10715;48.546;9.896;2023-08-06T05:23:10;3.30;;;0.90;;
21114;SDS011;10715;48.546;9.896;2023-08-06T05:25:36;2.43;;;1.13;;
21114;SDS011;10715;48.546;9.896;2023-08-06T05:28:05;3.00;;;1.13;;
21114;SDS011;10715;48.546;9.896;2023-08-06T05:30:31;1.53;;;1.33;;
21114;SDS011;10715;48.546;9.896;2023-08-06T05:32:56;1.77;;;0.93;;
21114;SDS011;10715;48.546;9.896;2023-08-06T05:35:22;2.10;;;1.00;;
21114;SDS011;10715;48.546;9.896;2023-08-06T05:37:48;2.27;;;2.07;;
21114;SDS011;10715;48.546;9.896;2023-08-06T05:40:17;1.80;;;0.90;;
21114;SDS011;10715;48.546;9.896;2023-08-06T05:42:43;2.90;;;1.00;;
21114;SDS011;10715;48.546;9.896;2023-08-06T05:45:09;1.17;;;0.80;;
21114;SDS011;10715;48.546;9.896;2023-08-06T05:47:35;1.33;;;0.93;;
21114;SDS011;10715;48.546;9.896;2023-08-06T05:50:01;1.73;;;0.70;;
21114;SDS011;10715;48.546;9.896;2023-08-06T05:52:26;1.20;;;0.83;;
21114;SDS011;10715;48.546;9.896;2023-08-06T05:54:52;1.80;;;0.67;;
21114;SDS011;10715;48.546;9.896;2023-08-06T05:57:18;3.17;;;0.70;;
21114;SDS011;10715;48.546;9.896;2023-08-06T05:59:43;1.00;;;0.60;;
21114;SDS011;10715;48.546;9.896;2023-08-06T06:02:09;3.07;;;1.37;;
21114;SDS011;10715;48.546;9.896;2023-08-06T06:04:35;1.30;;;0.63;;
21114;SDS011;10715;48.546;9.896;2023-08-06T06:07:00;1.27;;;0.90;;
21114;SDS011;10715;48.546;9.896;2023-08-06T06:09:26;2.70;;;1.00;;
21114;SDS011;10715;48.546;9.896;2023-08-06T06:11:52;2.40;;;0.80;;
21114;SDS011;10715;48.546;9.896;2023-08-06T06:14:18;1.83;;;1.10;;
21114;SDS011;10715;48.546;9.896;2023-08-06T06:16:44;3.80;;;1.93;;
21114;SDS011;10715;48.546;9.896;2023-08-06T06:19:10;1.00;;;0.50;;
21114;SDS011;10715;48.546;9.896;2023-08-06T06:21:36;2.40;;;0.80;;
21114;SDS011;10715;48.546;9.896;2023-08-06T06:24:05;1.30;;;0.70;;
21114;SDS011;10715;48.546;9.896;2023-08-06T06:26:32;1.13;;;0.50;;
21114;SDS011;10715;48.546;9.896;2023-08-06T06:28:57;0.90;;;0.50;;
21114;SDS011;10715;48.546;9.896;2023-08-06T06:31:23;0.90;;;0.50;;
21114;SDS011;10715;48.546;9.896;2023-08-06T06:33:49;0.90;;;0.43;;
21114;SDS011;10715;48.546;9.896;2023-08-06T06:36:15;2.90;;;0.63;;
21114;SDS011;10715;48.546;9.896;2023-08-06T06:38:40;1.30;;;0.50;;
21114;SDS011;10715;48.546;9.896;2023-08-06T06:41:06;5.63;;;0.40;;
21114;SDS011;10715;48.546;9.896;2023-08-06T06:43:32;3.13;;;1.23;;
21114;SDS011;10715;48.546;9.896;2023-08-06T06:45:58;1.00;;;0.50;;
21114;SDS011;10715;48.546;9.896;2023-08-06T06:48:28;0.97;;;0.40;;
21114;SDS011;10715;48.546;9.896;2023-08-06T06:50:56;0.70;;;0.43;;
21114;SDS011;10715;48.546;9.896;2023-08-06T06:53:22;1.73;;;0.40;;
21114;SDS011;10715;48.546;9.896;2023-08-06T06:56:03;0.83;;;0.40;;
21114;SDS011;10715;48.546;9.896;2023-08-06T06:58:30;0.70;;;0.37;;
21114;SDS011;10715;48.546;9.896;2023-08-06T07:00:56;2.10;;;0.50;;
21114;SDS011;10715;48.546;9.896;2023-08-06T07:03:22;0.70;;;0.40;;
21114;SDS011;10715;48.546;9.896;2023-08-06T07:05:49;1.43;;;0.83;;
21114;SDS011;10715;48.546;9.896;2023-08-06T07:08:16;2.40;;;0.40;;
21114;SDS011;10715;48.546;9.896;2023-08-06T07:10:42;0.60;;;0.30;;
21114;SDS011;10715;48.546;9.896;2023-08-06T07:13:08;0.60;;;0.20;;
21114;SDS011;10715;48.546;9.896;2023-08-06T07:15:34;1.70;;;0.40;;
21114;SDS011;10715;48.546;9.896;2023-08-06T07:18:00;3.33;;;0.30;;
21114;SDS011;10715;48.546;9.896;2023-08-06T07:20:26;0.70;;;0.30;;
21114;SDS011;10715;48.546;9.896;2023-08-06T07:22:54;2.13;;;0.93;;
21114;SDS011;10715;48.546;9.896;2023-08-06T07:25:20;0.60;;;0.30;;
21114;SDS011;10715;48.546;9.896;2023-08-06T07:27:45;1.20;;;0.40;;
21114;SDS011;10715;48.546;9.896;2023-08-06T07:30:11;0.50;;;0.20;;
21114;SDS011;10715;48.546;9.896;2023-08-06T07:32:37;0.70;;;0.30;;
21114;SDS011;10715;48.546;9.896;2023-08-06T07:35:02;1.57;;;0.23;;
21114;SDS011;10715;48.546;9.896;2023-08-06T07:37:28;0.50;;;0.20;;
21114;SDS011;10715;48.546;9.896;2023-08-06T07:39:55;0.60;;;0.30;;
21114;SDS011;10715;48.546;9.896;2023-08-06T07:42:21;0.67;;;0.30;;
21114;SDS011;10715;48.546;9.896;2023-08-06T07:44:54;1.17;;;0.20;;
21114;SDS011;10715;48.546;9.896;2023-08-06T07:47:20;0.50;;;0.20;;
21114;SDS011;10715;48.546;9.896;2023-08-06T07:49:46;0.50;;;0.30;;
21114;SDS011;10715;48.546;9.896;2023-08-06T07:52:12;0.60;;;0.30;;
21114;SDS011;10715;48.546;9.896;2023-08-06T07:54:38;0.63;;;0.30;;
21114;SDS011;10715;48.546;9.896;2023-08-06T07:57:04;0.50;;;0.20;;
21114;SDS011;10715;48.546;9.896;2023-08-06T07:59:30;0.50;;;0.20;;
21114;SDS011;10715;48.546;9.896;2023-08-06T08:01:55;0.50;;;0.20;;
21114;SDS011;10715;48.546;9.896;2023-08-06T08:04:21;0.70;;;0.30;;
21114;SDS011;10715;48.546;9.896;2023-08-06T08:06:47;1.33;;;0.20;;
21114;SDS011;10715;48.546;9.896;2023-08-06T08:09:13;0.83;;;0.20;;
21114;SDS011;10715;48.546;9.896;2023-08-06T08:11:39;0.70;;;0.30;;
21114;SDS011;10715;48.546;9.896;2023-08-06T08:14:05;0.60;;;0.20;;
21114;SDS011;10715;48.546;9.896;2023-08-06T08:16:31;0.50;;;0.20;;
21114;SDS011;10715;48.546;9.896;2023-08-06T08:18:57;1.03;;;0.20;;
21114;SDS011;10715;48.546;9.896;2023-08-06T08:21:23;0.50;;;0.20;;
21114;SDS011;10715;48.546;9.896;2023-08-06T08:23:49;0.50;;;0.20;;
21114;SDS011;10715;48.546;9.896;2023-08-06T08:26:15;1.70;;;0.30;;
21114;SDS011;10715;48.546;9.896;2023-08-06T08:28:41;0.83;;;0.30;;
21114;SDS011;10715;48.546;9.896;2023-08-06T08:31:10;1.03;;;0.20;;
21114;SDS011;10715;48.546;9.896;2023-08-06T08:33:37;0.50;;;0.20;;
21114;SDS011;10715;48.546;9.896;2023-08-06T08:36:03;0.50;;;0.20;;
21114;SDS011;10715;48.546;9.896;2023-08-06T08:38:29;0.50;;;0.20;;
21114;SDS011;10715;48.546;9.896;2023-08-06T08:40:55;2.87;;;0.20;;
21114;SDS011;10715;48.546;9.896;2023-08-06T08:43:21;3.70;;;0.20;;
21114;SDS011;10715;48.546;9.896;2023-08-06T08:45:49;0.40;;;0.20;;
21114;SDS011;10715;48.546;9.896;2023-08-06T08:48:15;0.60;;;0.20;;
21114;SDS011;10715;48.546;9.896;2023-08-06T08:50:44;0.50;;;0.20;;
21114;SDS011;10715;48.546;9.896;2023-08-06T08:53:11;0.60;;;0.20;;
21114;SDS011;10715;48.546;9.896;2023-08-06T08:55:39;1.10;;;0.23;;
21114;SDS011;10715;48.546;9.896;2023-08-06T08:58:05;0.50;;;0.20;;
21114;SDS011;10715;48.546;9.896;2023-08-06T09:00:32;0.50;;;0.20;;
21114;SDS011;10715;48.546;9.896;2023-08-06T09:02:58;0.50;;;0.20;;
21114;SDS011;10715;48.546;9.896;2023-08-06T09:05:26;0.40;;;0.20;;
21114;SDS011;10715;48.546;9.896;2023-08-06T09:07:56;0.40;;;0.10;;
21114;SDS011;10715;48.546;9.896;2023-08-06T09:10:27;0.50;;;0.20;;
21114;SDS011;10715;48.546;9.896;2023-08-06T09:12:53;0.57;;;0.20;;
21114;SDS011;10715;48.546;9.896;2023-08-06T09:15:25;0.50;;;0.20;;
21114;SDS011;10715;48.546;9.896;2023-08-06T09:17:51;0.70;;;0.20;;
21114;SDS011;10715;48.546;9.896;2023-08-06T09:20:17;0.60;;;0.20;;
21114;SDS011;10715;48.546;9.896;2023-08-06T09:22:43;0.50;;;0.20;;
21114;SDS011;10715;48.546;9.896;2023-08-06T09:25:10;0.90;;;0.20;;
21114;SDS011;10715;48.546;9.896;2023-08-06T09:27:38;0.40;;;0.20;;
21114;SDS011;10715;48.546;9.896;2023-08-06T09:30:05;0.47;;;0.20;;
21114;SDS011;10715;48.546;9.896;2023-08-06T09:32:45;0.40;;;0.20;;
21114;SDS011;10715;48.546;9.896;2023-08-06T09:35:15;0.50;;;0.20;;
21114;SDS011;10715;48.546;9.896;2023-08-06T09:37:45;0.50;;;0.20;;
21114;SDS011;10715;48.546;9.896;2023-08-06T09:40:30;0.40;;;0.20;;
21114;SDS011;10715;48.546;9.896;2023-08-06T09:42:57;0.50;;;0.20;;
21114;SDS011;10715;48.546;9.896;2023-08-06T09:45:23;0.50;;;0.20;;
21114;SDS011;10715;48.546;9.896;2023-08-06T09:47:58;2.60;;;0.20;;
21114;SDS011;10715;48.546;9.896;2023-08-06T09:50:28;0.40;;;0.20;;
21114;SDS011;10715;48.546;9.896;2023-08-06T09:52:56;2.77;;;0.20;;
21114;SDS011;10715;48.546;9.896;2023-08-06T09:55:23;0.40;;;0.20;;
21114;SDS011;10715;48.546;9.896;2023-08-06T09:57:51;2.03;;;0.20;;
21114;SDS011;10715;48.546;9.896;2023-08-06T10:00:17;0.40;;;0.10;;
21114;SDS011;10715;48.546;9.896;2023-08-06T10:02:43;0.50;;;0.20;;
21114;SDS011;10715;48.546;9.896;2023-08-06T10:05:10;0.50;;;0.20;;
21114;SDS011;10715;48.546;9.896;2023-08-06T10:07:36;0.50;;;0.20;;
21114;SDS011;10715;48.546;9.896;2023-08-06T10:10:06;0.40;;;0.20;;
21114;SDS011;10715;48.546;9.896;2023-08-06T10:12:37;0.80;;;0.20;;
21114;SDS011;10715;48.546;9.896;2023-08-06T10:15:09;0.60;;;0.20;;
21114;SDS011;10715;48.546;9.896;2023-08-06T10:17:39;0.50;;;0.20;;
21114;SDS011;10715;48.546;9.896;2023-08-06T10:20:06;1.90;;;0.30;;
21114;SDS011;10715;48.546;9.896;2023-08-06T10:22:35;0.40;;;0.20;;
21114;SDS011;10715;48.546;9.896;2023-08-06T10:25:01;0.40;;;0.20;;
21114;SDS011;10715;48.546;9.896;2023-08-06T10:27:34;0.40;;;0.20;;
21114;SDS011;10715;48.546;9.896;2023-08-06T10:33:11;0.50;;;0.20;;
21114;SDS011;10715;48.546;9.896;2023-08-06T10:35:45;0.60;;;0.20;;
21114;SDS011;10715;48.546;9.896;2023-08-06T10:43:29;0.57;;;0.20;;
21114;SDS011;10715;48.546;9.896;2023-08-06T10:46:00;1.20;;;0.20;;
21114;SDS011;10715;48.546;9.896;2023-08-06T10:51:03;0.57;;;0.20;;
21114;SDS011;10715;48.546;9.896;2023-08-06T10:53:32;0.50;;;0.20;;
21114;SDS011;10715;48.546;9.896;2023-08-06T10:55:58;0.60;;;0.20;;
21114;SDS011;10715;48.546;9.896;2023-08-06T10:58:24;0.50;;;0.20;;
21114;SDS011;10715;48.546;9.896;2023-08-06T11:00:49;0.50;;;0.20;;
21114;SDS011;10715;48.546;9.896;2023-08-06T11:03:15;0.50;;;0.20;;
21114;SDS011;10715;48.546;9.896;2023-08-06T11:05:48;0.40;;;0.20;;
21114;SDS011;10715;48.546;9.896;2023-08-06T11:08:27;0.50;;;0.20;;
21114;SDS011;10715;48.546;9.896;2023-08-06T11:10:54;0.50;;;0.20;;
21114;SDS011;10715;48.546;9.896;2023-08-06T11:13:32;0.60;;;0.20;;
21114;SDS011;10715;48.546;9.896;2023-08-06T11:15:58;0.50;;;0.20;;
21114;SDS011;10715;48.546;9.896;2023-08-06T11:18:23;0.50;;;0.20;;
21114;SDS011;10715;48.546;9.896;2023-08-06T11:20:49;0.50;;;0.20;;
21114;SDS011;10715;48.546;9.896;2023-08-06T11:23:16;0.40;;;0.20;;
21114;SDS011;10715;48.546;9.896;2023-08-06T11:25:45;0.40;;;0.20;;
21114;SDS011;10715;48.546;9.896;2023-08-06T11:28:11;0.40;;;0.20;;
21114;SDS011;10715;48.546;9.896;2023-08-06T11:30:38;0.40;;;0.20;;
21114;SDS011;10715;48.546;9.896;2023-08-06T11:33:06;0.50;;;0.20;;
21114;SDS011;10715;48.546;9.896;2023-08-06T11:35:35;0.40;;;0.20;;
21114;SDS011;10715;48.546;9.896;2023-08-06T11:38:01;0.40;;;0.20;;
21114;SDS011;10715;48.546;9.896;2023-08-06T11:40:27;0.40;;;0.20;;
21114;SDS011;10715;48.546;9.896;2023-08-06T11:42:53;0.43;;;0.20;;
21114;SDS011;10715;48.546;9.896;2023-08-06T11:45:21;0.40;;;0.10;;
21114;SDS011;10715;48.546;9.896;2023-08-06T11:47:51;0.40;;;0.20;;
21114;SDS011;10715;48.546;9.896;2023-08-06T11:50:21;0.50;;;0.20;;
21114;SDS011;10715;48.546;9.896;2023-08-06T11:52:48;0.43;;;0.20;;
21114;SDS011;10715;48.546;9.896;2023-08-06T11:55:27;0.40;;;0.20;;
21114;SDS011;10715;48.546;9.896;2023-08-06T11:57:54;0.80;;;0.20;;
21114;SDS011;10715;48.546;9.896;2023-08-06T12:00:20;1.00;;;0.20;;
21114;SDS011;10715;48.546;9.896;2023-08-06T12:02:49;0.50;;;0.20;;
21114;SDS011;10715;48.546;9.896;2023-08-06T12:05:17;0.40;;;0.20;;
21114;SDS011;10715;48.546;9.896;2023-08-06T12:08:04;4.30;;;0.20;;
21114;SDS011;10715;48.546;9.896;2023-08-06T12:10:31;0.40;;;0.20;;
21114;SDS011;10715;48.546;9.896;2023-08-06T12:12:57;0.40;;;0.20;;
21114;SDS011;10715;48.546;9.896;2023-08-06T12:15:23;0.50;;;0.20;;
21114;SDS011;10715;48.546;9.896;2023-08-06T12:17:49;0.60;;;0.30;;
21114;SDS011;10715;48.546;9.896;2023-08-06T12:20:15;0.40;;;0.20;;
21114;SDS011;10715;48.546;9.896;2023-08-06T12:22:41;0.50;;;0.20;;
21114;SDS011;10715;48.546;9.896;2023-08-06T12:25:07;0.50;;;0.20;;
21114;SDS011;10715;48.546;9.896;2023-08-06T12:27:37;0.40;;;0.20;;
21114;SDS011;10715;48.546;9.896;2023-08-06T12:30:04;1.20;;;0.20;;
21114;SDS011;10715;48.546;9.896;2023-08-06T12:32:30;0.50;;;0.20;;
21114;SDS011;10715;48.546;9.896;2023-08-06T12:34:56;0.47;;;0.20;;
21114;SDS011;10715;48.546;9.896;2023-08-06T12:37:23;0.50;;;0.20;;
21114;SDS011;10715;48.546;9.896;2023-08-06T12:39:50;0.40;;;0.20;;
21114;SDS011;10715;48.546;9.896;2023-08-06T12:42:16;0.50;;;0.20;;
21114;SDS011;10715;48.546;9.896;2023-08-06T12:44:41;0.50;;;0.20;;
21114;SDS011;10715;48.546;9.896;2023-08-06T12:47:07;0.47;;;0.20;;
21114;SDS011;10715;48.546;9.896;2023-08-06T12:49:33;3.13;;;0.30;;
21114;SDS011;10715;48.546;9.896;2023-08-06T12:51:59;0.50;;;0.20;;
21114;SDS011;10715;48.546;9.896;2023-08-06T12:54:26;0.60;;;0.20;;
21114;SDS011;10715;48.546;9.896;2023-08-06T12:56:52;0.40;;;0.20;;
21114;SDS011;10715;48.546;9.896;2023-08-06T12:59:18;0.50;;;0.20;;
21114;SDS011;10715;48.546;9.896;2023-08-06T13:01:44;0.50;;;0.20;;
21114;SDS011;10715;48.546;9.896;2023-08-06T13:04:10;0.40;;;0.20;;
21114;SDS011;10715;48.546;9.896;2023-08-06T13:06:37;0.80;;;0.30;;
21114;SDS011;10715;48.546;9.896;2023-08-06T13:09:05;0.97;;;0.30;;
21114;SDS011;10715;48.546;9.896;2023-08-06T13:11:32;0.60;;;0.30;;
21114;SDS011;10715;48.546;9.896;2023-08-06T13:14:05;2.03;;;0.30;;
21114;SDS011;10715;48.546;9.896;2023-08-06T13:16:31;0.60;;;0.30;;
21114;SDS011;10715;48.546;9.896;2023-08-06T13:18:57;3.80;;;0.27;;
21114;SDS011;10715;48.546;9.896;2023-08-06T13:21:23;0.60;;;0.30;;
21114;SDS011;10715;48.546;9.896;2023-08-06T13:23:49;0.60;;;0.30;;
21114;SDS011;10715;48.546;9.896;2023-08-06T13:26:14;0.50;;;0.20;;
21114;SDS011;10715;48.546;9.896;2023-08-06T13:28:43;0.50;;;0.20;;
21114;SDS011;10715;48.546;9.896;2023-08-06T13:31:09;1.53;;;0.30;;
21114;SDS011;10715;48.546;9.896;2023-08-06T13:33:35;0.60;;;0.30;;
21114;SDS011;10715;48.546;9.896;2023-08-06T13:36:00;0.70;;;0.30;;
21114;SDS011;10715;48.546;9.896;2023-08-06T13:38:26;0.70;;;0.30;;
21114;SDS011;10715;48.546;9.896;2023-08-06T13:40:52;0.57;;;0.23;;
21114;SDS011;10715;48.546;9.896;2023-08-06T13:43:17;1.37;;;0.30;;
21114;SDS011;10715;48.546;9.896;2023-08-06T13:45:44;0.50;;;0.30;;
21114;SDS011;10715;48.546;9.896;2023-08-06T13:48:10;2.80;;;0.30;;
21114;SDS011;10715;48.546;9.896;2023-08-06T13:50:36;1.50;;;0.30;;
21114;SDS011;10715;48.546;9.896;2023-08-06T13:53:02;0.50;;;0.27;;
21114;SDS011;10715;48.546;9.896;2023-08-06T13:55:28;0.60;;;0.30;;
21114;SDS011;10715;48.546;9.896;2023-08-06T13:57:55;0.77;;;0.33;;
21114;SDS011;10715;48.546;9.896;2023-08-06T14:00:21;0.90;;;0.53;;
21114;SDS011;10715;48.546;9.896;2023-08-06T14:02:46;0.70;;;0.30;;
21114;SDS011;10715;48.546;9.896;2023-08-06T14:05:12;0.70;;;0.37;;
21114;SDS011;10715;48.546;9.896;2023-08-06T14:07:38;0.70;;;0.30;;
21114;SDS011;10715;48.546;9.896;2023-08-06T14:10:04;0.70;;;0.30;;
21114;SDS011;10715;48.546;9.896;2023-08-06T14:12:31;0.70;;;0.50;;
21114;SDS011;10715;48.546;9.896;2023-08-06T14:14:56;0.70;;;0.30;;
21114;SDS011;10715;48.546;9.896;2023-08-06T14:17:22;1.33;;;0.20;;
21114;SDS011;10715;48.546;9.896;2023-08-06T14:19:48;0.70;;;0.30;;
21114;SDS011;10715;48.546;9.896;2023-08-06T14:22:13;0.70;;;0.30;;
21114;SDS011;10715;48.546;9.896;2023-08-06T14:24:39;0.53;;;0.30;;
21114;SDS011;10715;48.546;9.896;2023-08-06T14:27:05;0.70;;;0.40;;
21114;SDS011;10715;48.546;9.896;2023-08-06T14:29:31;0.90;;;0.30;;
21114;SDS011;10715;48.546;9.896;2023-08-06T14:31:57;0.90;;;0.50;;
21114;SDS011;10715;48.546;9.896;2023-08-06T14:34:23;0.67;;;0.50;;
21114;SDS011;10715;48.546;9.896;2023-08-06T14:36:48;0.50;;;0.30;;
21114;SDS011;10715;48.546;9.896;2023-08-06T14:39:14;2.30;;;0.53;;
21114;SDS011;10715;48.546;9.896;2023-08-06T14:41:40;0.60;;;0.30;;
21114;SDS011;10715;48.546;9.896;2023-08-06T14:44:05;0.60;;;0.30;;
21114;SDS011;10715;48.546;9.896;2023-08-06T14:46:32;0.60;;;0.30;;
21114;SDS011;10715;48.546;9.896;2023-08-06T14:48:58;0.57;;;0.30;;
21114;SDS011;10715;48.546;9.896;2023-08-06T14:51:24;0.50;;;0.30;;
21114;SDS011;10715;48.546;9.896;2023-08-06T14:53:49;0.50;;;0.30;;
21114;SDS011;10715;48.546;9.896;2023-08-06T14:56:15;0.50;;;0.30;;
21114;SDS011;10715;48.546;9.896;2023-08-06T14:58:41;0.50;;;0.30;;
21114;SDS011;10715;48.546;9.896;2023-08-06T15:01:07;0.70;;;0.30;;
21114;SDS011;10715;48.546;9.896;2023-08-06T15:03:33;0.63;;;0.30;;